Grand Canyon National Park, AZ

5:09 AM MST on August 21, 2014 (GMT -0700)
KAZGRAND3 | Change Station
CLOSE
Current Station
Personal Weather Station
Location: Grand Canyon, AZ
Elevation: 6991 ft
Nearby Weather Stations

Elev 6991 ft 36.05 °N, 112.12 °W | Updated 7 seconds ago

Clear
Clear
47.5 °F
Feels Like 48 °F
N
0.0
Wind Variable Wind from WNW
Gusts 0.0 mph

Today
High -- | Low -- °F
--% Chance of Precip.
Yesterday
High -- | Low -- °F
Precip. -- in
5:51 AM 7:10 PM
Waning Crescent, 14% visible
Pressure 30.31 in
Visibility 10.0 miles
Clouds Clear
Windchill 48 °F
Dew Point 45 °F
Humidity 92%
Rainfall 0.00 in
Snow Depth Not available.
UV 0 out of 12
Pollen 4.50 out of 12
Air Quality Not available.
Flu Activity Not available.
METAR KCMR 211155Z AUTO 15006KT 10SM CLR 09/08 A3031 RMK AO1

More Conditions Fewer Conditions

Pressure 30.31 in
Visibility 10.0 miles
Clouds Clear
Windchill 48 °F
Dew Point 45 °F
Humidity 92%
Rainfall 0.00 in
Snow Depth Not available.
UV 0 out of 12
Pollen 4.50 out of 12
Air Quality Not available.
Flu Activity Not available.
METAR KCMR 211155Z AUTO 15006KT 10SM CLR 09/08 A3031 RMK AO1

More Conditions Fewer Conditions

10-Day Weather Forecast

Almanac

Astronomy

Aug. 21, 2014 Rise Set
Actual Time 5:51 AM MST 7:10 PM MST
Civil Twilight 5:24 AM MST 7:37 PM MST
Nautical Twilight 4:52 AM MST 8:09 PM MST
Astronomical Twilight 4:19 AM MST 8:43 PM MST
Moon 2:28 AM MST 4:39 PM MST
Length of Visible Light 14h 12m
Length of Day
13h 19m
Tomorrow will be 2m 5s shorter.
Waning Crescent, 14% of the Moon is Illuminated
Today
Waning Crescent
Aug 25
New
Sep 2
First Quarter
Sep 8
Full
Sep 15
Last Quarter

Today's Extremes

State Highs State Lows

Community

WunderPhotos

Upload Photos

1,745,882 photos uploaded!

Nearby

Snow Depth

Station Depth Elevation
Snowslide Canyon 1 in 9730 ft
White Horse Lake 1 in 7180 ft
Mormon Mountain 0 in 7500 ft
Promontory 0 in 7930 ft
Heber 0 in 7640 ft

Earthquake Activity

City Distance Mag. Time & Date
No recent earthquake activity has been reported nearby.
Minimum magnitude displayed is 2.5.

Coastal Water Temperatures

Place Temperature
No Stations Reporting

Nearby Weather Stations